sensor_id;sensor_type;location;lat;lon;timestamp;P1;durP1;ratioP1;P2;durP2;ratioP2
18076;SDS011;9165;45.714;11.362;2024-01-15T00:01:59;34.73;;;22.07;;
18076;SDS011;9165;45.714;11.362;2024-01-15T00:04:26;37.90;;;24.43;;
18076;SDS011;9165;45.714;11.362;2024-01-15T00:06:53;35.80;;;21.87;;
18076;SDS011;9165;45.714;11.362;2024-01-15T00:09:21;34.63;;;22.23;;
18076;SDS011;9165;45.714;11.362;2024-01-15T00:11:47;33.20;;;20.10;;
18076;SDS011;9165;45.714;11.362;2024-01-15T00:14:14;33.77;;;22.30;;
18076;SDS011;9165;45.714;11.362;2024-01-15T00:16:45;32.23;;;21.27;;
18076;SDS011;9165;45.714;11.362;2024-01-15T00:19:11;36.37;;;23.07;;
18076;SDS011;9165;45.714;11.362;2024-01-15T00:21:38;33.90;;;20.97;;
18076;SDS011;9165;45.714;11.362;2024-01-15T00:24:04;33.70;;;21.03;;
18076;SDS011;9165;45.714;11.362;2024-01-15T00:26:32;34.00;;;20.70;;
18076;SDS011;9165;45.714;11.362;2024-01-15T00:28:59;33.70;;;21.40;;
18076;SDS011;9165;45.714;11.362;2024-01-15T00:31:25;37.73;;;22.33;;
18076;SDS011;9165;45.714;11.362;2024-01-15T00:33:52;33.47;;;20.33;;
18076;SDS011;9165;45.714;11.362;2024-01-15T00:36:18;34.10;;;21.83;;
18076;SDS011;9165;45.714;11.362;2024-01-15T00:38:45;36.97;;;22.77;;
18076;SDS011;9165;45.714;11.362;2024-01-15T00:41:12;34.03;;;21.00;;
18076;SDS011;9165;45.714;11.362;2024-01-15T00:43:40;35.37;;;22.30;;
18076;SDS011;9165;45.714;11.362;2024-01-15T00:46:06;34.43;;;20.97;;
18076;SDS011;9165;45.714;11.362;2024-01-15T00:48:33;32.37;;;19.73;;
18076;SDS011;9165;45.714;11.362;2024-01-15T00:51:00;33.00;;;20.80;;
18076;SDS011;9165;45.714;11.362;2024-01-15T00:53:26;33.70;;;20.03;;
18076;SDS011;9165;45.714;11.362;2024-01-15T00:55:53;30.17;;;18.83;;
18076;SDS011;9165;45.714;11.362;2024-01-15T00:58:19;32.13;;;20.20;;
18076;SDS011;9165;45.714;11.362;2024-01-15T01:00:47;28.73;;;18.40;;
18076;SDS011;9165;45.714;11.362;2024-01-15T01:03:14;33.27;;;19.10;;
18076;SDS011;9165;45.714;11.362;2024-01-15T01:05:40;32.47;;;18.67;;
18076;SDS011;9165;45.714;11.362;2024-01-15T01:08:07;28.33;;;18.27;;
18076;SDS011;9165;45.714;11.362;2024-01-15T01:10:33;25.30;;;15.53;;
18076;SDS011;9165;45.714;11.362;2024-01-15T01:13:00;32.87;;;18.23;;
18076;SDS011;9165;45.714;11.362;2024-01-15T01:15:26;30.07;;;18.77;;
18076;SDS011;9165;45.714;11.362;2024-01-15T01:17:54;32.33;;;19.40;;
18076;SDS011;9165;45.714;11.362;2024-01-15T01:20:21;32.93;;;20.30;;
18076;SDS011;9165;45.714;11.362;2024-01-15T01:22:48;28.40;;;19.67;;
18076;SDS011;9165;45.714;11.362;2024-01-15T01:25:14;37.50;;;21.80;;
18076;SDS011;9165;45.714;11.362;2024-01-15T01:27:41;33.40;;;20.50;;
18076;SDS011;9165;45.714;11.362;2024-01-15T01:30:08;30.70;;;19.60;;
18076;SDS011;9165;45.714;11.362;2024-01-15T01:32:34;31.87;;;19.57;;
18076;SDS011;9165;45.714;11.362;2024-01-15T01:35:03;31.77;;;21.23;;
18076;SDS011;9165;45.714;11.362;2024-01-15T01:37:29;30.03;;;18.93;;
18076;SDS011;9165;45.714;11.362;2024-01-15T01:39:56;29.03;;;19.37;;
18076;SDS011;9165;45.714;11.362;2024-01-15T01:42:22;30.83;;;19.07;;
18076;SDS011;9165;45.714;11.362;2024-01-15T01:44:49;30.33;;;19.90;;
18076;SDS011;9165;45.714;11.362;2024-01-15T01:47:15;34.17;;;19.83;;
18076;SDS011;9165;45.714;11.362;2024-01-15T01:49:42;31.90;;;20.07;;
18076;SDS011;9165;45.714;11.362;2024-01-15T01:52:10;34.37;;;20.13;;
18076;SDS011;9165;45.714;11.362;2024-01-15T01:54:37;34.97;;;20.23;;
18076;SDS011;9165;45.714;11.362;2024-01-15T01:57:04;30.77;;;18.73;;
18076;SDS011;9165;45.714;11.362;2024-01-15T01:59:31;31.03;;;19.73;;
18076;SDS011;9165;45.714;11.362;2024-01-15T02:01:58;31.87;;;20.63;;
18076;SDS011;9165;45.714;11.362;2024-01-15T02:04:27;30.53;;;19.80;;
18076;SDS011;9165;45.714;11.362;2024-01-15T02:06:54;29.90;;;18.90;;
18076;SDS011;9165;45.714;11.362;2024-01-15T02:09:22;31.63;;;19.13;;
18076;SDS011;9165;45.714;11.362;2024-01-15T02:11:48;31.57;;;19.33;;
18076;SDS011;9165;45.714;11.362;2024-01-15T02:14:15;27.80;;;18.27;;
18076;SDS011;9165;45.714;11.362;2024-01-15T02:16:42;28.23;;;19.20;;
18076;SDS011;9165;45.714;11.362;2024-01-15T02:19:14;30.83;;;18.70;;
18076;SDS011;9165;45.714;11.362;2024-01-15T02:21:41;29.10;;;19.03;;
18076;SDS011;9165;45.714;11.362;2024-01-15T02:24:08;30.43;;;19.27;;
18076;SDS011;9165;45.714;11.362;2024-01-15T02:26:35;28.70;;;18.30;;
18076;SDS011;9165;45.714;11.362;2024-01-15T02:29:03;30.47;;;18.80;;
18076;SDS011;9165;45.714;11.362;2024-01-15T02:31:30;27.63;;;17.30;;
18076;SDS011;9165;45.714;11.362;2024-01-15T02:33:56;31.33;;;19.17;;
18076;SDS011;9165;45.714;11.362;2024-01-15T02:36:23;26.97;;;18.33;;
18076;SDS011;9165;45.714;11.362;2024-01-15T02:38:50;30.47;;;18.97;;
18076;SDS011;9165;45.714;11.362;2024-01-15T02:41:18;30.07;;;18.27;;
18076;SDS011;9165;45.714;11.362;2024-01-15T02:43:44;29.57;;;18.33;;
18076;SDS011;9165;45.714;11.362;2024-01-15T02:46:11;29.87;;;19.13;;
18076;SDS011;9165;45.714;11.362;2024-01-15T02:48:37;30.60;;;19.53;;
18076;SDS011;9165;45.714;11.362;2024-01-15T02:51:04;32.40;;;20.00;;
18076;SDS011;9165;45.714;11.362;2024-01-15T02:53:30;29.50;;;18.07;;
18076;SDS011;9165;45.714;11.362;2024-01-15T02:55:57;30.13;;;18.93;;
18076;SDS011;9165;45.714;11.362;2024-01-15T02:58:25;32.23;;;20.40;;
18076;SDS011;9165;45.714;11.362;2024-01-15T03:00:51;30.60;;;19.53;;
18076;SDS011;9165;45.714;11.362;2024-01-15T03:03:18;30.23;;;18.80;;
18076;SDS011;9165;45.714;11.362;2024-01-15T03:05:44;31.70;;;18.97;;
18076;SDS011;9165;45.714;11.362;2024-01-15T03:08:11;29.80;;;18.30;;
18076;SDS011;9165;45.714;11.362;2024-01-15T03:10:37;28.07;;;18.03;;
18076;SDS011;9165;45.714;11.362;2024-01-15T03:13:04;30.40;;;17.97;;
18076;SDS011;9165;45.714;11.362;2024-01-15T03:15:32;31.57;;;18.67;;
18076;SDS011;9165;45.714;11.362;2024-01-15T03:17:58;26.80;;;17.33;;
18076;SDS011;9165;45.714;11.362;2024-01-15T03:20:25;27.23;;;17.27;;
18076;SDS011;9165;45.714;11.362;2024-01-15T03:22:52;28.60;;;17.33;;
18076;SDS011;9165;45.714;11.362;2024-01-15T03:25:18;28.47;;;18.50;;
18076;SDS011;9165;45.714;11.362;2024-01-15T03:27:45;30.30;;;18.37;;
18076;SDS011;9165;45.714;11.362;2024-01-15T03:30:12;27.50;;;16.03;;
18076;SDS011;9165;45.714;11.362;2024-01-15T03:32:40;30.33;;;17.63;;
18076;SDS011;9165;45.714;11.362;2024-01-15T03:35:06;26.30;;;17.27;;
18076;SDS011;9165;45.714;11.362;2024-01-15T03:37:33;29.33;;;17.63;;
18076;SDS011;9165;45.714;11.362;2024-01-15T03:40:00;30.53;;;17.83;;
18076;SDS011;9165;45.714;11.362;2024-01-15T03:42:27;29.57;;;18.67;;
18076;SDS011;9165;45.714;11.362;2024-01-15T03:44:54;29.00;;;18.07;;
18076;SDS011;9165;45.714;11.362;2024-01-15T03:47:20;27.13;;;18.03;;
18076;SDS011;9165;45.714;11.362;2024-01-15T03:49:48;29.63;;;18.03;;
18076;SDS011;9165;45.714;11.362;2024-01-15T03:52:15;34.50;;;19.17;;
18076;SDS011;9165;45.714;11.362;2024-01-15T03:54:41;32.03;;;18.67;;
18076;SDS011;9165;45.714;11.362;2024-01-15T03:57:08;31.07;;;18.90;;
18076;SDS011;9165;45.714;11.362;2024-01-15T03:59:34;27.60;;;17.17;;
18076;SDS011;9165;45.714;11.362;2024-01-15T04:02:01;29.27;;;17.93;;
18076;SDS011;9165;45.714;11.362;2024-01-15T04:04:27;31.10;;;18.40;;
18076;SDS011;9165;45.714;11.362;2024-01-15T04:06:55;29.17;;;17.87;;
18076;SDS011;9165;45.714;11.362;2024-01-15T04:09:22;32.13;;;18.50;;
18076;SDS011;9165;45.714;11.362;2024-01-15T04:11:48;29.83;;;16.33;;
18076;SDS011;9165;45.714;11.362;2024-01-15T04:14:15;33.77;;;17.87;;
18076;SDS011;9165;45.714;11.362;2024-01-15T04:16:41;27.20;;;17.10;;
18076;SDS011;9165;45.714;11.362;2024-01-15T04:19:08;26.97;;;16.97;;
18076;SDS011;9165;45.714;11.362;2024-01-15T04:21:34;28.47;;;17.40;;
18076;SDS011;9165;45.714;11.362;2024-01-15T04:24:02;34.33;;;16.63;;
18076;SDS011;9165;45.714;11.362;2024-01-15T04:26:29;30.73;;;17.83;;
18076;SDS011;9165;45.714;11.362;2024-01-15T04:28:55;26.23;;;16.93;;
18076;SDS011;9165;45.714;11.362;2024-01-15T04:31:24;27.20;;;17.00;;
18076;SDS011;9165;45.714;11.362;2024-01-15T04:33:52;104.90;;;30.90;;
18076;SDS011;9165;45.714;11.362;2024-01-15T04:36:18;26.43;;;17.67;;
18076;SDS011;9165;45.714;11.362;2024-01-15T04:38:45;28.87;;;18.80;;
18076;SDS011;9165;45.714;11.362;2024-01-15T04:41:13;33.87;;;19.30;;
18076;SDS011;9165;45.714;11.362;2024-01-15T04:43:40;31.97;;;19.37;;
18076;SDS011;9165;45.714;11.362;2024-01-15T04:46:06;32.53;;;20.53;;
18076;SDS011;9165;45.714;11.362;2024-01-15T04:48:33;31.57;;;19.57;;
18076;SDS011;9165;45.714;11.362;2024-01-15T04:51:00;33.73;;;19.83;;
18076;SDS011;9165;45.714;11.362;2024-01-15T04:53:26;32.53;;;17.80;;
18076;SDS011;9165;45.714;11.362;2024-01-15T04:55:53;31.60;;;18.87;;
18076;SDS011;9165;45.714;11.362;2024-01-15T04:58:21;30.70;;;19.07;;
18076;SDS011;9165;45.714;11.362;2024-01-15T05:00:50;28.53;;;18.13;;
18076;SDS011;9165;45.714;11.362;2024-01-15T05:03:16;35.37;;;20.17;;
18076;SDS011;9165;45.714;11.362;2024-01-15T05:05:43;28.87;;;19.03;;
18076;SDS011;9165;45.714;11.362;2024-01-15T05:08:10;30.83;;;18.47;;
18076;SDS011;9165;45.714;11.362;2024-01-15T05:10:37;31.93;;;18.17;;
18076;SDS011;9165;45.714;11.362;2024-01-15T05:13:06;29.53;;;18.20;;
18076;SDS011;9165;45.714;11.362;2024-01-15T05:15:34;29.97;;;18.50;;
18076;SDS011;9165;45.714;11.362;2024-01-15T05:18:01;34.50;;;19.00;;
18076;SDS011;9165;45.714;11.362;2024-01-15T05:20:27;34.40;;;18.77;;
18076;SDS011;9165;45.714;11.362;2024-01-15T05:22:54;25.60;;;17.37;;
18076;SDS011;9165;45.714;11.362;2024-01-15T05:25:21;28.70;;;17.50;;
18076;SDS011;9165;45.714;11.362;2024-01-15T05:27:47;30.90;;;17.70;;
18076;SDS011;9165;45.714;11.362;2024-01-15T05:30:14;44.93;;;31.40;;
18076;SDS011;9165;45.714;11.362;2024-01-15T05:32:43;31.93;;;18.80;;
18076;SDS011;9165;45.714;11.362;2024-01-15T05:35:09;29.77;;;18.00;;
18076;SDS011;9165;45.714;11.362;2024-01-15T05:37:36;28.43;;;17.17;;
18076;SDS011;9165;45.714;11.362;2024-01-15T05:40:02;28.07;;;17.40;;
18076;SDS011;9165;45.714;11.362;2024-01-15T05:42:30;30.20;;;17.77;;
18076;SDS011;9165;45.714;11.362;2024-01-15T05:44:57;27.77;;;17.47;;
18076;SDS011;9165;45.714;11.362;2024-01-15T05:47:24;29.87;;;19.13;;
18076;SDS011;9165;45.714;11.362;2024-01-15T05:49:52;33.73;;;19.80;;
18076;SDS011;9165;45.714;11.362;2024-01-15T05:52:20;33.10;;;19.23;;
18076;SDS011;9165;45.714;11.362;2024-01-15T05:54:47;31.03;;;18.47;;
18076;SDS011;9165;45.714;11.362;2024-01-15T05:57:13;32.13;;;18.90;;
18076;SDS011;9165;45.714;11.362;2024-01-15T05:59:40;29.57;;;19.00;;
18076;SDS011;9165;45.714;11.362;2024-01-15T06:02:06;31.60;;;18.23;;
18076;SDS011;9165;45.714;11.362;2024-01-15T06:04:33;29.93;;;18.60;;
18076;SDS011;9165;45.714;11.362;2024-01-15T06:13:11;31.23;;;18.90;;
18076;SDS011;9165;45.714;11.362;2024-01-15T06:15:54;32.13;;;17.97;;
18076;SDS011;9165;45.714;11.362;2024-01-15T06:18:34;29.17;;;17.80;;
18076;SDS011;9165;45.714;11.362;2024-01-15T06:21:01;36.60;;;18.00;;
18076;SDS011;9165;45.714;11.362;2024-01-15T06:23:37;29.93;;;18.20;;
18076;SDS011;9165;45.714;11.362;2024-01-15T06:26:03;31.20;;;18.83;;
18076;SDS011;9165;45.714;11.362;2024-01-15T06:28:32;34.50;;;20.90;;
18076;SDS011;9165;45.714;11.362;2024-01-15T06:31:18;32.00;;;19.43;;
18076;SDS011;9165;45.714;11.362;2024-01-15T06:39:17;32.20;;;18.40;;
18076;SDS011;9165;45.714;11.362;2024-01-15T07:10:39;28.60;;;18.20;;
18076;SDS011;9165;45.714;11.362;2024-01-15T07:35:24;36.03;;;20.57;;
18076;SDS011;9165;45.714;11.362;2024-01-15T07:38:14;29.83;;;19.53;;
18076;SDS011;9165;45.714;11.362;2024-01-15T07:40:40;30.80;;;18.47;;
18076;SDS011;9165;45.714;11.362;2024-01-15T07:43:07;32.27;;;20.10;;
18076;SDS011;9165;45.714;11.362;2024-01-15T07:45:39;30.43;;;19.90;;
18076;SDS011;9165;45.714;11.362;2024-01-15T07:48:52;29.57;;;19.57;;
18076;SDS011;9165;45.714;11.362;2024-01-15T07:51:30;36.33;;;20.17;;
18076;SDS011;9165;45.714;11.362;2024-01-15T07:53:57;30.63;;;18.33;;
18076;SDS011;9165;45.714;11.362;2024-01-15T07:56:23;29.07;;;18.10;;
18076;SDS011;9165;45.714;11.362;2024-01-15T07:58:52;27.63;;;18.40;;
18076;SDS011;9165;45.714;11.362;2024-01-15T08:01:19;32.87;;;19.77;;
18076;SDS011;9165;45.714;11.362;2024-01-15T08:03:45;31.00;;;19.30;;
18076;SDS011;9165;45.714;11.362;2024-01-15T08:06:12;27.77;;;17.47;;
18076;SDS011;9165;45.714;11.362;2024-01-15T08:08:40;31.87;;;19.00;;
18076;SDS011;9165;45.714;11.362;2024-01-15T08:11:07;32.77;;;18.97;;
18076;SDS011;9165;45.714;11.362;2024-01-15T08:13:34;29.33;;;18.40;;
18076;SDS011;9165;45.714;11.362;2024-01-15T08:16:00;27.80;;;16.07;;
18076;SDS011;9165;45.714;11.362;2024-01-15T08:18:27;25.93;;;14.57;;
18076;SDS011;9165;45.714;11.362;2024-01-15T08:20:54;26.43;;;14.33;;
18076;SDS011;9165;45.714;11.362;2024-01-15T08:23:20;35.77;;;17.43;;
18076;SDS011;9165;45.714;11.362;2024-01-15T08:25:48;27.07;;;15.53;;
18076;SDS011;9165;45.714;11.362;2024-01-15T08:28:16;28.27;;;15.37;;
18076;SDS011;9165;45.714;11.362;2024-01-15T08:30:42;29.63;;;15.30;;
18076;SDS011;9165;45.714;11.362;2024-01-15T08:33:09;30.20;;;14.67;;
18076;SDS011;9165;45.714;11.362;2024-01-15T08:35:35;25.83;;;14.93;;
18076;SDS011;9165;45.714;11.362;2024-01-15T08:38:02;25.67;;;14.20;;
18076;SDS011;9165;45.714;11.362;2024-01-15T08:40:30;25.80;;;14.83;;
18076;SDS011;9165;45.714;11.362;2024-01-15T08:43:01;24.20;;;16.17;;
18076;SDS011;9165;45.714;11.362;2024-01-15T08:45:29;26.93;;;14.07;;
18076;SDS011;9165;45.714;11.362;2024-01-15T08:47:56;28.17;;;14.83;;
18076;SDS011;9165;45.714;11.362;2024-01-15T08:50:24;31.30;;;16.50;;
18076;SDS011;9165;45.714;11.362;2024-01-15T08:52:50;27.40;;;14.10;;
18076;SDS011;9165;45.714;11.362;2024-01-15T08:55:17;31.50;;;15.23;;
18076;SDS011;9165;45.714;11.362;2024-01-15T08:57:43;26.27;;;14.23;;
18076;SDS011;9165;45.714;11.362;2024-01-15T09:00:13;31.00;;;15.20;;
18076;SDS011;9165;45.714;11.362;2024-01-15T09:02:41;30.33;;;15.73;;
18076;SDS011;9165;45.714;11.362;2024-01-15T09:05:08;31.27;;;15.63;;
18076;SDS011;9165;45.714;11.362;2024-01-15T09:07:34;27.77;;;16.20;;
18076;SDS011;9165;45.714;11.362;2024-01-15T09:10:01;29.93;;;15.90;;
18076;SDS011;9165;45.714;11.362;2024-01-15T09:12:28;28.50;;;16.53;;
18076;SDS011;9165;45.714;11.362;2024-01-15T09:14:55;30.90;;;17.63;;
18076;SDS011;9165;45.714;11.362;2024-01-15T09:17:23;62.23;;;29.90;;
18076;SDS011;9165;45.714;11.362;2024-01-15T09:19:49;39.17;;;21.00;;
18076;SDS011;9165;45.714;11.362;2024-01-15T09:22:16;42.83;;;21.57;;
18076;SDS011;9165;45.714;11.362;2024-01-15T09:24:44;42.17;;;22.00;;
18076;SDS011;9165;45.714;11.362;2024-01-15T09:27:12;38.50;;;21.83;;
18076;SDS011;9165;45.714;11.362;2024-01-15T09:29:39;47.73;;;23.03;;
18076;SDS011;9165;45.714;11.362;2024-01-15T09:32:07;45.47;;;23.87;;
18076;SDS011;9165;45.714;11.362;2024-01-15T09:34:35;39.93;;;23.07;;
18076;SDS011;9165;45.714;11.362;2024-01-15T09:37:01;49.07;;;24.53;;
18076;SDS011;9165;45.714;11.362;2024-01-15T09:39:29;48.53;;;26.63;;
18076;SDS011;9165;45.714;11.362;2024-01-15T09:41:57;45.87;;;25.00;;
18076;SDS011;9165;45.714;11.362;2024-01-15T09:44:23;41.83;;;22.80;;
18076;SDS011;9165;45.714;11.362;2024-01-15T09:46:51;39.40;;;23.30;;
18076;SDS011;9165;45.714;11.362;2024-01-15T09:49:18;47.13;;;24.33;;
18076;SDS011;9165;45.714;11.362;2024-01-15T09:51:46;43.70;;;25.90;;
18076;SDS011;9165;45.714;11.362;2024-01-15T09:54:13;46.43;;;26.80;;
18076;SDS011;9165;45.714;11.362;2024-01-15T09:56:42;49.03;;;26.50;;
18076;SDS011;9165;45.714;11.362;2024-01-15T09:59:08;43.23;;;23.53;;
18076;SDS011;9165;45.714;11.362;2024-01-15T10:01:36;38.47;;;23.73;;
18076;SDS011;9165;45.714;11.362;2024-01-15T10:04:03;42.17;;;23.90;;
18076;SDS011;9165;45.714;11.362;2024-01-15T10:06:29;35.57;;;20.83;;
18076;SDS011;9165;45.714;11.362;2024-01-15T10:08:58;40.20;;;23.47;;
18076;SDS011;9165;45.714;11.362;2024-01-15T10:11:24;46.13;;;24.23;;
18076;SDS011;9165;45.714;11.362;2024-01-15T10:13:51;44.30;;;24.20;;
18076;SDS011;9165;45.714;11.362;2024-01-15T10:16:18;45.93;;;24.40;;
18076;SDS011;9165;45.714;11.362;2024-01-15T10:18:45;46.90;;;23.47;;
18076;SDS011;9165;45.714;11.362;2024-01-15T10:21:11;46.23;;;24.30;;
18076;SDS011;9165;45.714;11.362;2024-01-15T10:23:39;41.50;;;23.87;;
18076;SDS011;9165;45.714;11.362;2024-01-15T10:26:07;47.55;;;25.35;;
18076;SDS011;9165;45.714;11.362;2024-01-15T10:28:34;43.07;;;23.87;;
18076;SDS011;9165;45.714;11.362;2024-01-15T10:31:01;44.73;;;25.30;;
18076;SDS011;9165;45.714;11.362;2024-01-15T10:33:28;44.67;;;27.30;;
18076;SDS011;9165;45.714;11.362;2024-01-15T10:35:55;49.83;;;26.33;;
18076;SDS011;9165;45.714;11.362;2024-01-15T10:38:22;47.13;;;26.20;;
18076;SDS011;9165;45.714;11.362;2024-01-15T10:40:50;40.03;;;25.10;;
18076;SDS011;9165;45.714;11.362;2024-01-15T10:43:18;45.07;;;25.27;;
18076;SDS011;9165;45.714;11.362;2024-01-15T10:45:45;46.80;;;26.60;;
18076;SDS011;9165;45.714;11.362;2024-01-15T10:48:12;43.30;;;25.57;;
18076;SDS011;9165;45.714;11.362;2024-01-15T10:50:39;46.20;;;27.07;;
18076;SDS011;9165;45.714;11.362;2024-01-15T10:53:06;45.97;;;26.97;;
18076;SDS011;9165;45.714;11.362;2024-01-15T10:55:35;37.53;;;24.73;;
18076;SDS011;9165;45.714;11.362;2024-01-15T10:58:01;42.43;;;26.50;;
18076;SDS011;9165;45.714;11.362;2024-01-15T11:00:30;45.63;;;26.17;;
18076;SDS011;9165;45.714;11.362;2024-01-15T11:02:57;40.93;;;26.13;;
18076;SDS011;9165;45.714;11.362;2024-01-15T11:05:23;40.53;;;25.43;;
18076;SDS011;9165;45.714;11.362;2024-01-15T11:07:50;41.33;;;24.93;;
18076;SDS011;9165;45.714;11.362;2024-01-15T11:13:02;34.20;;;22.73;;
18076;SDS011;9165;45.714;11.362;2024-01-15T11:15:30;43.77;;;24.10;;
18076;SDS011;9165;45.714;11.362;2024-01-15T11:17:59;42.43;;;24.20;;
18076;SDS011;9165;45.714;11.362;2024-01-15T11:20:26;39.70;;;23.20;;
18076;SDS011;9165;45.714;11.362;2024-01-15T11:22:53;33.93;;;20.60;;
18076;SDS011;9165;45.714;11.362;2024-01-15T11:25:22;39.30;;;21.20;;
18076;SDS011;9165;45.714;11.362;2024-01-15T11:27:49;35.23;;;21.10;;
18076;SDS011;9165;45.714;11.362;2024-01-15T11:30:16;35.23;;;20.33;;
18076;SDS011;9165;45.714;11.362;2024-01-15T11:32:46;33.63;;;20.73;;
18076;SDS011;9165;45.714;11.362;2024-01-15T11:35:13;41.77;;;23.67;;
18076;SDS011;9165;45.714;11.362;2024-01-15T11:37:58;38.23;;;21.30;;
18076;SDS011;9165;45.714;11.362;2024-01-15T11:40:39;34.30;;;21.63;;
18076;SDS011;9165;45.714;11.362;2024-01-15T11:43:07;31.43;;;15.53;;
18076;SDS011;9165;45.714;11.362;2024-01-15T11:45:34;26.47;;;17.07;;
18076;SDS011;9165;45.714;11.362;2024-01-15T11:48:08;26.10;;;16.43;;
18076;SDS011;9165;45.714;11.362;2024-01-15T11:50:35;31.30;;;15.90;;
18076;SDS011;9165;45.714;11.362;2024-01-15T11:53:03;34.03;;;20.07;;
18076;SDS011;9165;45.714;11.362;2024-01-15T11:55:33;33.17;;;18.63;;
18076;SDS011;9165;45.714;11.362;2024-01-15T11:58:00;35.07;;;19.00;;
18076;SDS011;9165;45.714;11.362;2024-01-15T12:00:27;29.47;;;18.97;;
18076;SDS011;9165;45.714;11.362;2024-01-15T12:02:54;32.37;;;16.17;;
18076;SDS011;9165;45.714;11.362;2024-01-15T12:05:22;28.37;;;17.57;;
18076;SDS011;9165;45.714;11.362;2024-01-15T12:07:49;23.90;;;15.60;;
18076;SDS011;9165;45.714;11.362;2024-01-15T12:10:17;33.87;;;18.77;;
18076;SDS011;9165;45.714;11.362;2024-01-15T12:12:49;31.90;;;18.00;;
18076;SDS011;9165;45.714;11.362;2024-01-15T12:15:19;26.83;;;13.97;;
18076;SDS011;9165;45.714;11.362;2024-01-15T12:17:45;25.43;;;15.87;;
18076;SDS011;9165;45.714;11.362;2024-01-15T12:20:12;23.47;;;14.53;;
18076;SDS011;9165;45.714;11.362;2024-01-15T12:22:40;21.77;;;14.00;;
18076;SDS011;9165;45.714;11.362;2024-01-15T12:25:07;19.93;;;13.03;;
18076;SDS011;9165;45.714;11.362;2024-01-15T12:27:33;26.57;;;14.73;;
18076;SDS011;9165;45.714;11.362;2024-01-15T12:30:00;29.10;;;16.07;;
18076;SDS011;9165;45.714;11.362;2024-01-15T12:32:26;32.07;;;16.00;;
18076;SDS011;9165;45.714;11.362;2024-01-15T12:34:53;30.53;;;16.50;;
18076;SDS011;9165;45.714;11.362;2024-01-15T12:37:20;29.57;;;15.90;;
18076;SDS011;9165;45.714;11.362;2024-01-15T12:39:49;28.03;;;15.80;;
18076;SDS011;9165;45.714;11.362;2024-01-15T12:42:15;24.40;;;15.27;;
18076;SDS011;9165;45.714;11.362;2024-01-15T12:44:43;26.20;;;13.73;;
18076;SDS011;9165;45.714;11.362;2024-01-15T12:47:11;23.87;;;15.00;;
18076;SDS011;9165;45.714;11.362;2024-01-15T12:49:39;26.77;;;16.07;;
18076;SDS011;9165;45.714;11.362;2024-01-15T12:52:08;24.13;;;15.00;;
18076;SDS011;9165;45.714;11.362;2024-01-15T12:54:34;23.87;;;15.17;;
18076;SDS011;9165;45.714;11.362;2024-01-15T12:57:02;29.00;;;16.00;;
18076;SDS011;9165;45.714;11.362;2024-01-15T12:59:29;33.80;;;18.33;;
18076;SDS011;9165;45.714;11.362;2024-01-15T13:01:56;30.33;;;16.90;;
18076;SDS011;9165;45.714;11.362;2024-01-15T13:04:23;23.77;;;14.63;;
18076;SDS011;9165;45.714;11.362;2024-01-15T13:06:50;28.60;;;16.50;;
18076;SDS011;9165;45.714;11.362;2024-01-15T13:09:16;33.17;;;17.00;;
18076;SDS011;9165;45.714;11.362;2024-01-15T13:11:43;25.90;;;16.37;;
18076;SDS011;9165;45.714;11.362;2024-01-15T13:14:11;26.63;;;15.20;;
18076;SDS011;9165;45.714;11.362;2024-01-15T13:16:38;25.23;;;15.00;;
18076;SDS011;9165;45.714;11.362;2024-01-15T13:19:06;28.33;;;17.03;;
18076;SDS011;9165;45.714;11.362;2024-01-15T13:21:33;31.83;;;17.60;;
18076;SDS011;9165;45.714;11.362;2024-01-15T13:23:59;29.93;;;15.83;;
18076;SDS011;9165;45.714;11.362;2024-01-15T13:26:27;36.80;;;18.40;;
18076;SDS011;9165;45.714;11.362;2024-01-15T13:28:53;27.50;;;16.30;;
18076;SDS011;9165;45.714;11.362;2024-01-15T13:31:21;23.63;;;14.20;;
18076;SDS011;9165;45.714;11.362;2024-01-15T13:33:48;26.23;;;15.33;;
18076;SDS011;9165;45.714;11.362;2024-01-15T13:36:14;27.73;;;16.60;;
18076;SDS011;9165;45.714;11.362;2024-01-15T13:38:41;32.13;;;17.10;;
18076;SDS011;9165;45.714;11.362;2024-01-15T13:41:07;28.37;;;16.03;;
18076;SDS011;9165;45.714;11.362;2024-01-15T13:43:34;32.27;;;17.93;;
18076;SDS011;9165;45.714;11.362;2024-01-15T13:46:00;33.00;;;16.90;;
18076;SDS011;9165;45.714;11.362;2024-01-15T13:48:32;31.80;;;16.70;;
18076;SDS011;9165;45.714;11.362;2024-01-15T13:50:59;24.40;;;16.13;;
18076;SDS011;9165;45.714;11.362;2024-01-15T13:53:25;28.67;;;14.90;;
18076;SDS011;9165;45.714;11.362;2024-01-15T13:55:52;27.40;;;16.83;;
18076;SDS011;9165;45.714;11.362;2024-01-15T13:58:19;33.20;;;16.10;;
18076;SDS011;9165;45.714;11.362;2024-01-15T14:00:46;27.53;;;16.20;;
18076;SDS011;9165;45.714;11.362;2024-01-15T14:03:13;27.93;;;16.63;;
18076;SDS011;9165;45.714;11.362;2024-01-15T14:05:44;28.00;;;17.53;;
18076;SDS011;9165;45.714;11.362;2024-01-15T14:08:10;29.53;;;17.43;;
18076;SDS011;9165;45.714;11.362;2024-01-15T14:10:37;22.37;;;14.73;;
18076;SDS011;9165;45.714;11.362;2024-01-15T14:13:03;24.23;;;15.43;;
18076;SDS011;9165;45.714;11.362;2024-01-15T14:15:30;27.33;;;15.77;;
18076;SDS011;9165;45.714;11.362;2024-01-15T14:17:56;29.83;;;16.50;;
18076;SDS011;9165;45.714;11.362;2024-01-15T14:20:24;25.53;;;16.03;;
18076;SDS011;9165;45.714;11.362;2024-01-15T14:22:52;27.93;;;15.50;;
18076;SDS011;9165;45.714;11.362;2024-01-15T14:25:19;29.60;;;17.23;;
18076;SDS011;9165;45.714;11.362;2024-01-15T14:27:45;30.90;;;16.70;;
18076;SDS011;9165;45.714;11.362;2024-01-15T14:30:12;34.03;;;16.73;;
18076;SDS011;9165;45.714;11.362;2024-01-15T14:32:41;31.93;;;16.87;;
18076;SDS011;9165;45.714;11.362;2024-01-15T14:35:07;33.20;;;17.20;;
18076;SDS011;9165;45.714;11.362;2024-01-15T14:37:36;32.03;;;16.80;;
18076;SDS011;9165;45.714;11.362;2024-01-15T14:40:04;30.67;;;16.70;;
18076;SDS011;9165;45.714;11.362;2024-01-15T14:42:32;31.80;;;17.53;;
18076;SDS011;9165;45.714;11.362;2024-01-15T14:44:59;37.43;;;17.97;;
18076;SDS011;9165;45.714;11.362;2024-01-15T14:47:26;27.77;;;17.33;;
18076;SDS011;9165;45.714;11.362;2024-01-15T14:49:53;28.27;;;18.03;;
18076;SDS011;9165;45.714;11.362;2024-01-15T14:52:19;36.70;;;18.47;;
18076;SDS011;9165;45.714;11.362;2024-01-15T14:54:46;40.73;;;18.60;;
18076;SDS011;9165;45.714;11.362;2024-01-15T14:57:14;42.07;;;18.93;;
18076;SDS011;9165;45.714;11.362;2024-01-15T14:59:41;35.07;;;18.77;;
18076;SDS011;9165;45.714;11.362;2024-01-15T15:02:07;32.47;;;19.33;;
18076;SDS011;9165;45.714;11.362;2024-01-15T15:04:34;34.63;;;19.60;;
18076;SDS011;9165;45.714;11.362;2024-01-15T15:07:00;43.33;;;19.77;;
18076;SDS011;9165;45.714;11.362;2024-01-15T15:09:27;33.90;;;20.40;;
18076;SDS011;9165;45.714;11.362;2024-01-15T15:11:53;36.87;;;19.73;;
18076;SDS011;9165;45.714;11.362;2024-01-15T15:14:20;31.93;;;18.77;;
18076;SDS011;9165;45.714;11.362;2024-01-15T15:16:47;38.07;;;20.13;;
18076;SDS011;9165;45.714;11.362;2024-01-15T15:19:13;37.40;;;19.37;;
18076;SDS011;9165;45.714;11.362;2024-01-15T15:21:40;33.67;;;18.87;;
18076;SDS011;9165;45.714;11.362;2024-01-15T15:24:06;34.57;;;19.17;;
18076;SDS011;9165;45.714;11.362;2024-01-15T15:26:33;41.07;;;20.60;;
18076;SDS011;9165;45.714;11.362;2024-01-15T15:29:01;34.43;;;18.97;;